sensor_id;sensor_type;location;lat;lon;timestamp;temperature;humidity
39045;DHT22;52192;52.002;5.956;2022-07-29T00:01:44;20.80;54.10
39045;DHT22;52192;52.002;5.956;2022-07-29T00:04:10;20.70;54.10
39045;DHT22;52192;52.002;5.956;2022-07-29T00:06:36;20.70;54.20
39045;DHT22;52192;52.002;5.956;2022-07-29T00:09:01;20.70;54.50
39045;DHT22;52192;52.002;5.956;2022-07-29T00:11:27;20.60;54.60
39045;DHT22;52192;52.002;5.956;2022-07-29T00:13:52;20.60;54.60
39045;DHT22;52192;52.002;5.956;2022-07-29T00:16:20;20.60;54.60
39045;DHT22;52192;52.002;5.956;2022-07-29T00:18:46;20.60;54.50
39045;DHT22;52192;52.002;5.956;2022-07-29T00:21:11;20.60;54.60
39045;DHT22;52192;52.002;5.956;2022-07-29T00:23:37;20.60;54.50
39045;DHT22;52192;52.002;5.956;2022-07-29T00:26:02;20.60;54.70
39045;DHT22;52192;52.002;5.956;2022-07-29T00:28:28;20.60;54.80
39045;DHT22;52192;52.002;5.956;2022-07-29T00:30:54;20.60;55.00
39045;DHT22;52192;52.002;5.956;2022-07-29T00:33:19;20.60;55.00
39045;DHT22;52192;52.002;5.956;2022-07-29T00:35:46;20.50;55.00
39045;DHT22;52192;52.002;5.956;2022-07-29T00:38:12;20.50;55.30
39045;DHT22;52192;52.002;5.956;2022-07-29T00:40:38;20.40;55.30
39045;DHT22;52192;52.002;5.956;2022-07-29T00:43:04;20.40;55.40
39045;DHT22;52192;52.002;5.956;2022-07-29T00:45:29;20.40;55.60
39045;DHT22;52192;52.002;5.956;2022-07-29T00:47:55;20.40;55.60
39045;DHT22;52192;52.002;5.956;2022-07-29T00:50:21;20.40;55.80
39045;DHT22;52192;52.002;5.956;2022-07-29T00:52:47;20.40;55.90
39045;DHT22;52192;52.002;5.956;2022-07-29T00:55:13;20.40;55.90
39045;DHT22;52192;52.002;5.956;2022-07-29T00:57:39;20.40;55.80
39045;DHT22;52192;52.002;5.956;2022-07-29T01:00:06;20.30;56.10
39045;DHT22;52192;52.002;5.956;2022-07-29T01:02:31;20.30;56.30
39045;DHT22;52192;52.002;5.956;2022-07-29T01:04:57;20.20;56.30
39045;DHT22;52192;52.002;5.956;2022-07-29T01:07:23;20.20;56.40
39045;DHT22;52192;52.002;5.956;2022-07-29T01:09:52;20.20;56.40
39045;DHT22;52192;52.002;5.956;2022-07-29T01:12:21;20.20;56.40
39045;DHT22;52192;52.002;5.956;2022-07-29T01:14:50;20.20;56.40
39045;DHT22;52192;52.002;5.956;2022-07-29T01:23:34;20.20;56.60
39045;DHT22;52192;52.002;5.956;2022-07-29T01:30:56;20.20;56.70
39045;DHT22;52192;52.002;5.956;2022-07-29T01:33:22;20.20;56.80
39045;DHT22;52192;52.002;5.956;2022-07-29T01:36:11;20.10;56.80
39045;DHT22;52192;52.002;5.956;2022-07-29T01:38:39;20.10;57.00
39045;DHT22;52192;52.002;5.956;2022-07-29T01:41:06;20.00;57.10
39045;DHT22;52192;52.002;5.956;2022-07-29T01:43:36;20.00;57.20
39045;DHT22;52192;52.002;5.956;2022-07-29T01:46:08;20.00;57.40
39045;DHT22;52192;52.002;5.956;2022-07-29T01:48:36;20.00;57.50
39045;DHT22;52192;52.002;5.956;2022-07-29T01:51:06;20.00;57.40
39045;DHT22;52192;52.002;5.956;2022-07-29T01:53:38;20.00;57.50
39045;DHT22;52192;52.002;5.956;2022-07-29T01:56:08;19.90;57.60
39045;DHT22;52192;52.002;5.956;2022-07-29T01:58:34;19.90;57.80
39045;DHT22;52192;52.002;5.956;2022-07-29T02:01:00;19.80;57.80
39045;DHT22;52192;52.002;5.956;2022-07-29T02:03:27;19.90;57.90
39045;DHT22;52192;52.002;5.956;2022-07-29T02:05:53;19.90;57.80
39045;DHT22;52192;52.002;5.956;2022-07-29T02:08:19;19.90;57.80
39045;DHT22;52192;52.002;5.956;2022-07-29T02:10:54;19.90;57.80
39045;DHT22;52192;52.002;5.956;2022-07-29T02:13:41;19.90;57.80
39045;DHT22;52192;52.002;5.956;2022-07-29T02:16:08;19.80;57.90
39045;DHT22;52192;52.002;5.956;2022-07-29T02:18:35;19.80;58.30
39045;DHT22;52192;52.002;5.956;2022-07-29T02:21:02;19.90;58.30
39045;DHT22;52192;52.002;5.956;2022-07-29T02:23:28;19.90;58.50
39045;DHT22;52192;52.002;5.956;2022-07-29T02:25:56;19.80;58.40
39045;DHT22;52192;52.002;5.956;2022-07-29T02:28:22;19.80;58.70
39045;DHT22;52192;52.002;5.956;2022-07-29T02:30:49;19.80;58.90
39045;DHT22;52192;52.002;5.956;2022-07-29T02:33:18;19.80;58.60
39045;DHT22;52192;52.002;5.956;2022-07-29T02:35:45;19.80;58.60
39045;DHT22;52192;52.002;5.956;2022-07-29T02:38:15;19.70;58.70
39045;DHT22;52192;52.002;5.956;2022-07-29T02:41:04;19.80;58.90
39045;DHT22;52192;52.002;5.956;2022-07-29T02:43:31;19.80;58.80
39045;DHT22;52192;52.002;5.956;2022-07-29T02:45:58;19.80;59.00
39045;DHT22;52192;52.002;5.956;2022-07-29T02:48:27;19.70;59.10
39045;DHT22;52192;52.002;5.956;2022-07-29T02:50:59;19.70;59.10
39045;DHT22;52192;52.002;5.956;2022-07-29T02:53:26;19.70;59.30
39045;DHT22;52192;52.002;5.956;2022-07-29T02:55:56;19.60;59.40
39045;DHT22;52192;52.002;5.956;2022-07-29T02:58:32;19.60;60.00
39045;DHT22;52192;52.002;5.956;2022-07-29T03:01:02;19.60;60.40
39045;DHT22;52192;52.002;5.956;2022-07-29T03:03:36;19.60;60.70
39045;DHT22;52192;52.002;5.956;2022-07-29T03:06:02;19.50;61.30
39045;DHT22;52192;52.002;5.956;2022-07-29T03:08:28;19.50;61.80
39045;DHT22;52192;52.002;5.956;2022-07-29T03:10:55;19.40;61.80
39045;DHT22;52192;52.002;5.956;2022-07-29T03:13:29;19.40;61.90
39045;DHT22;52192;52.002;5.956;2022-07-29T03:15:57;19.40;62.30
39045;DHT22;52192;52.002;5.956;2022-07-29T03:18:26;19.40;62.40
39045;DHT22;52192;52.002;5.956;2022-07-29T03:20:52;19.30;62.60
39045;DHT22;52192;52.002;5.956;2022-07-29T03:23:21;19.30;62.80
39045;DHT22;52192;52.002;5.956;2022-07-29T03:25:48;19.30;63.00
39045;DHT22;52192;52.002;5.956;2022-07-29T03:28:13;19.20;63.20
39045;DHT22;52192;52.002;5.956;2022-07-29T03:30:39;19.10;63.50
39045;DHT22;52192;52.002;5.956;2022-07-29T03:33:04;19.10;63.80
39045;DHT22;52192;52.002;5.956;2022-07-29T03:35:30;19.10;64.10
39045;DHT22;52192;52.002;5.956;2022-07-29T03:37:57;19.00;64.20
39045;DHT22;52192;52.002;5.956;2022-07-29T03:40:24;19.00;64.40
39045;DHT22;52192;52.002;5.956;2022-07-29T03:42:51;18.90;64.50
39045;DHT22;52192;52.002;5.956;2022-07-29T03:45:17;18.90;64.80
39045;DHT22;52192;52.002;5.956;2022-07-29T03:47:45;18.80;64.80
39045;DHT22;52192;52.002;5.956;2022-07-29T03:50:13;18.80;65.00
39045;DHT22;52192;52.002;5.956;2022-07-29T03:52:42;18.70;65.10
39045;DHT22;52192;52.002;5.956;2022-07-29T03:55:08;18.70;65.30
39045;DHT22;52192;52.002;5.956;2022-07-29T03:57:34;18.60;65.50
39045;DHT22;52192;52.002;5.956;2022-07-29T04:00:00;18.60;65.60
39045;DHT22;52192;52.002;5.956;2022-07-29T04:02:26;18.50;65.90
39045;DHT22;52192;52.002;5.956;2022-07-29T04:04:52;18.50;66.00
39045;DHT22;52192;52.002;5.956;2022-07-29T04:07:21;18.50;66.00
39045;DHT22;52192;52.002;5.956;2022-07-29T04:09:47;18.50;66.00
39045;DHT22;52192;52.002;5.956;2022-07-29T04:12:12;18.50;65.90
39045;DHT22;52192;52.002;5.956;2022-07-29T04:14:38;18.50;65.90
39045;DHT22;52192;52.002;5.956;2022-07-29T04:17:03;18.40;66.10
39045;DHT22;52192;52.002;5.956;2022-07-29T04:19:29;18.40;66.20
39045;DHT22;52192;52.002;5.956;2022-07-29T04:21:55;18.40;66.30
39045;DHT22;52192;52.002;5.956;2022-07-29T04:24:24;18.40;66.50
39045;DHT22;52192;52.002;5.956;2022-07-29T04:26:50;18.40;66.70
39045;DHT22;52192;52.002;5.956;2022-07-29T04:29:18;18.40;66.80
39045;DHT22;52192;52.002;5.956;2022-07-29T04:31:45;18.30;66.90
39045;DHT22;52192;52.002;5.956;2022-07-29T04:34:10;18.30;66.80
39045;DHT22;52192;52.002;5.956;2022-07-29T04:36:36;18.40;66.90
39045;DHT22;52192;52.002;5.956;2022-07-29T04:39:02;18.30;67.00
39045;DHT22;52192;52.002;5.956;2022-07-29T04:41:28;18.30;67.20
39045;DHT22;52192;52.002;5.956;2022-07-29T04:43:56;18.30;67.20
39045;DHT22;52192;52.002;5.956;2022-07-29T04:46:22;18.20;67.20
39045;DHT22;52192;52.002;5.956;2022-07-29T04:48:47;18.20;67.30
39045;DHT22;52192;52.002;5.956;2022-07-29T04:51:16;18.20;67.30
39045;DHT22;52192;52.002;5.956;2022-07-29T04:53:42;18.20;67.50
39045;DHT22;52192;52.002;5.956;2022-07-29T04:56:07;18.20;67.40
39045;DHT22;52192;52.002;5.956;2022-07-29T04:58:36;18.20;67.60
39045;DHT22;52192;52.002;5.956;2022-07-29T05:01:02;18.20;67.70
39045;DHT22;52192;52.002;5.956;2022-07-29T05:03:28;18.10;67.60
39045;DHT22;52192;52.002;5.956;2022-07-29T05:05:53;18.10;67.40
39045;DHT22;52192;52.002;5.956;2022-07-29T05:08:19;18.10;67.70
39045;DHT22;52192;52.002;5.956;2022-07-29T05:10:44;18.10;67.60
39045;DHT22;52192;52.002;5.956;2022-07-29T05:13:10;18.10;67.50
39045;DHT22;52192;52.002;5.956;2022-07-29T05:15:38;18.10;67.60
39045;DHT22;52192;52.002;5.956;2022-07-29T05:18:12;18.10;67.40
39045;DHT22;52192;52.002;5.956;2022-07-29T05:20:38;18.10;67.30
39045;DHT22;52192;52.002;5.956;2022-07-29T05:23:08;18.10;67.40
39045;DHT22;52192;52.002;5.956;2022-07-29T05:25:34;18.10;67.80
39045;DHT22;52192;52.002;5.956;2022-07-29T05:28:00;18.10;68.00
39045;DHT22;52192;52.002;5.956;2022-07-29T05:30:28;18.10;67.80
39045;DHT22;52192;52.002;5.956;2022-07-29T05:32:54;18.10;67.70
39045;DHT22;52192;52.002;5.956;2022-07-29T05:35:20;18.10;68.40
39045;DHT22;52192;52.002;5.956;2022-07-29T05:37:45;18.10;68.10
39045;DHT22;52192;52.002;5.956;2022-07-29T05:40:13;18.20;68.30
39045;DHT22;52192;52.002;5.956;2022-07-29T05:42:39;18.20;68.10
39045;DHT22;52192;52.002;5.956;2022-07-29T05:45:04;18.30;67.90
39045;DHT22;52192;52.002;5.956;2022-07-29T05:47:30;18.40;68.20
39045;DHT22;52192;52.002;5.956;2022-07-29T05:49:56;18.40;67.80
39045;DHT22;52192;52.002;5.956;2022-07-29T05:52:21;18.50;68.00
39045;DHT22;52192;52.002;5.956;2022-07-29T05:54:47;18.50;68.00
39045;DHT22;52192;52.002;5.956;2022-07-29T05:57:19;18.50;68.00
39045;DHT22;52192;52.002;5.956;2022-07-29T05:59:45;18.50;68.00
39045;DHT22;52192;52.002;5.956;2022-07-29T06:02:11;18.60;68.10
39045;DHT22;52192;52.002;5.956;2022-07-29T06:04:36;18.60;68.10
39045;DHT22;52192;52.002;5.956;2022-07-29T06:07:02;18.60;68.00
39045;DHT22;52192;52.002;5.956;2022-07-29T06:09:28;18.60;68.10
39045;DHT22;52192;52.002;5.956;2022-07-29T06:11:53;18.60;68.20
39045;DHT22;52192;52.002;5.956;2022-07-29T06:14:19;18.70;68.10
39045;DHT22;52192;52.002;5.956;2022-07-29T06:16:44;18.70;68.00
39045;DHT22;52192;52.002;5.956;2022-07-29T06:19:13;18.70;67.90
39045;DHT22;52192;52.002;5.956;2022-07-29T06:21:45;18.80;67.70
39045;DHT22;52192;52.002;5.956;2022-07-29T06:24:10;18.80;68.20
39045;DHT22;52192;52.002;5.956;2022-07-29T06:26:40;18.80;67.40
39045;DHT22;52192;52.002;5.956;2022-07-29T06:29:06;18.80;67.40
39045;DHT22;52192;52.002;5.956;2022-07-29T06:31:53;18.90;67.20
39045;DHT22;52192;52.002;5.956;2022-07-29T06:34:17;18.90;67.00
39045;DHT22;52192;52.002;5.956;2022-07-29T06:36:43;19.00;66.70
39045;DHT22;52192;52.002;5.956;2022-07-29T06:39:08;19.10;66.50
39045;DHT22;52192;52.002;5.956;2022-07-29T06:41:34;19.10;66.30
39045;DHT22;52192;52.002;5.956;2022-07-29T06:43:59;19.20;66.20
39045;DHT22;52192;52.002;5.956;2022-07-29T06:46:25;19.20;66.00
39045;DHT22;52192;52.002;5.956;2022-07-29T06:48:51;19.30;65.90
39045;DHT22;52192;52.002;5.956;2022-07-29T06:51:17;19.40;65.80
39045;DHT22;52192;52.002;5.956;2022-07-29T06:53:42;19.40;65.50
39045;DHT22;52192;52.002;5.956;2022-07-29T06:56:08;19.50;66.00
39045;DHT22;52192;52.002;5.956;2022-07-29T06:58:34;19.60;65.30
39045;DHT22;52192;52.002;5.956;2022-07-29T07:01:00;19.70;65.10
39045;DHT22;52192;52.002;5.956;2022-07-29T07:03:26;19.70;65.00
39045;DHT22;52192;52.002;5.956;2022-07-29T07:05:52;19.70;64.90
39045;DHT22;52192;52.002;5.956;2022-07-29T07:08:19;19.70;64.80
39045;DHT22;52192;52.002;5.956;2022-07-29T07:10:44;19.70;64.70
39045;DHT22;52192;52.002;5.956;2022-07-29T07:13:10;19.70;64.70
39045;DHT22;52192;52.002;5.956;2022-07-29T07:15:36;19.70;64.80
39045;DHT22;52192;52.002;5.956;2022-07-29T07:18:02;19.80;64.70
39045;DHT22;52192;52.002;5.956;2022-07-29T07:20:28;19.80;64.60
39045;DHT22;52192;52.002;5.956;2022-07-29T07:22:54;19.90;64.80
39045;DHT22;52192;52.002;5.956;2022-07-29T07:25:19;19.90;64.70
39045;DHT22;52192;52.002;5.956;2022-07-29T07:27:45;19.80;64.70
39045;DHT22;52192;52.002;5.956;2022-07-29T07:30:11;19.80;65.00
39045;DHT22;52192;52.002;5.956;2022-07-29T07:32:36;19.70;65.30
39045;DHT22;52192;52.002;5.956;2022-07-29T07:35:05;19.70;65.40
39045;DHT22;52192;52.002;5.956;2022-07-29T07:37:31;19.70;65.50
39045;DHT22;52192;52.002;5.956;2022-07-29T07:39:57;19.80;65.50
39045;DHT22;52192;52.002;5.956;2022-07-29T07:42:23;19.80;65.40
39045;DHT22;52192;52.002;5.956;2022-07-29T07:44:48;19.80;65.40
39045;DHT22;52192;52.002;5.956;2022-07-29T07:47:14;19.80;65.30
39045;DHT22;52192;52.002;5.956;2022-07-29T07:49:40;19.80;65.20
39045;DHT22;52192;52.002;5.956;2022-07-29T07:52:06;19.70;65.10
39045;DHT22;52192;52.002;5.956;2022-07-29T07:54:32;19.70;65.00
39045;DHT22;52192;52.002;5.956;2022-07-29T07:56:57;19.70;65.20
39045;DHT22;52192;52.002;5.956;2022-07-29T07:59:23;19.70;65.60
39045;DHT22;52192;52.002;5.956;2022-07-29T08:01:49;19.70;65.50
39045;DHT22;52192;52.002;5.956;2022-07-29T08:04:15;19.70;65.20
39045;DHT22;52192;52.002;5.956;2022-07-29T08:06:40;19.80;65.20
39045;DHT22;52192;52.002;5.956;2022-07-29T08:09:06;19.90;65.10
39045;DHT22;52192;52.002;5.956;2022-07-29T08:11:32;19.90;65.00
39045;DHT22;52192;52.002;5.956;2022-07-29T08:13:57;19.90;64.80
39045;DHT22;52192;52.002;5.956;2022-07-29T08:16:23;19.90;64.60
39045;DHT22;52192;52.002;5.956;2022-07-29T08:18:50;20.00;64.50
39045;DHT22;52192;52.002;5.956;2022-07-29T08:21:16;20.10;64.50
39045;DHT22;52192;52.002;5.956;2022-07-29T08:23:42;20.10;64.20
39045;DHT22;52192;52.002;5.956;2022-07-29T08:26:14;20.10;64.20
39045;DHT22;52192;52.002;5.956;2022-07-29T08:28:40;20.20;64.20
39045;DHT22;52192;52.002;5.956;2022-07-29T08:31:09;20.30;64.30
39045;DHT22;52192;52.002;5.956;2022-07-29T08:33:35;20.30;64.40
39045;DHT22;52192;52.002;5.956;2022-07-29T08:36:01;20.50;64.40
39045;DHT22;52192;52.002;5.956;2022-07-29T08:38:26;20.50;64.20
39045;DHT22;52192;52.002;5.956;2022-07-29T08:40:52;20.60;64.00
39045;DHT22;52192;52.002;5.956;2022-07-29T08:43:18;20.60;63.80
39045;DHT22;52192;52.002;5.956;2022-07-29T08:45:45;20.70;63.70
39045;DHT22;52192;52.002;5.956;2022-07-29T08:48:11;20.70;63.70
39045;DHT22;52192;52.002;5.956;2022-07-29T08:50:37;20.70;63.70
39045;DHT22;52192;52.002;5.956;2022-07-29T08:53:03;20.80;63.60
39045;DHT22;52192;52.002;5.956;2022-07-29T08:55:29;20.80;63.40
39045;DHT22;52192;52.002;5.956;2022-07-29T08:57:55;20.90;63.30
39045;DHT22;52192;52.002;5.956;2022-07-29T09:00:21;20.90;63.40
39045;DHT22;52192;52.002;5.956;2022-07-29T09:02:47;20.90;63.30
39045;DHT22;52192;52.002;5.956;2022-07-29T09:05:17;20.80;63.10
39045;DHT22;52192;52.002;5.956;2022-07-29T09:07:42;20.80;63.30
39045;DHT22;52192;52.002;5.956;2022-07-29T09:10:09;20.80;63.20
39045;DHT22;52192;52.002;5.956;2022-07-29T09:12:34;20.80;63.20
39045;DHT22;52192;52.002;5.956;2022-07-29T09:15:00;20.80;63.10
39045;DHT22;52192;52.002;5.956;2022-07-29T09:17:42;20.80;63.20
39045;DHT22;52192;52.002;5.956;2022-07-29T09:20:08;20.80;63.10
39045;DHT22;52192;52.002;5.956;2022-07-29T09:22:34;20.90;63.20
39045;DHT22;52192;52.002;5.956;2022-07-29T09:24:59;20.90;63.30
39045;DHT22;52192;52.002;5.956;2022-07-29T09:27:25;20.90;63.20
39045;DHT22;52192;52.002;5.956;2022-07-29T09:29:55;21.00;63.40
39045;DHT22;52192;52.002;5.956;2022-07-29T09:32:21;21.00;63.20
39045;DHT22;52192;52.002;5.956;2022-07-29T09:34:46;21.00;63.10
39045;DHT22;52192;52.002;5.956;2022-07-29T09:37:13;21.10;63.00
39045;DHT22;52192;52.002;5.956;2022-07-29T09:39:51;21.10;62.80
39045;DHT22;52192;52.002;5.956;2022-07-29T09:42:26;21.20;62.90
39045;DHT22;52192;52.002;5.956;2022-07-29T09:44:52;21.20;62.90
39045;DHT22;52192;52.002;5.956;2022-07-29T09:47:18;21.20;62.90
39045;DHT22;52192;52.002;5.956;2022-07-29T09:49:57;21.20;63.00
39045;DHT22;52192;52.002;5.956;2022-07-29T09:52:26;21.30;63.00
39045;DHT22;52192;52.002;5.956;2022-07-29T09:54:52;21.30;63.00
39045;DHT22;52192;52.002;5.956;2022-07-29T09:57:26;21.30;62.90
39045;DHT22;52192;52.002;5.956;2022-07-29T09:59:58;21.30;62.90
39045;DHT22;52192;52.002;5.956;2022-07-29T10:02:28;21.40;62.80
39045;DHT22;52192;52.002;5.956;2022-07-29T10:04:54;21.50;62.80
39045;DHT22;52192;52.002;5.956;2022-07-29T10:07:20;21.60;62.60
39045;DHT22;52192;52.002;5.956;2022-07-29T10:09:50;21.70;62.40
39045;DHT22;52192;52.002;5.956;2022-07-29T10:12:17;21.80;62.30
39045;DHT22;52192;52.002;5.956;2022-07-29T10:14:43;21.90;62.00
39045;DHT22;52192;52.002;5.956;2022-07-29T10:17:09;22.10;61.80
39045;DHT22;52192;52.002;5.956;2022-07-29T10:19:36;22.30;61.50
39045;DHT22;52192;52.002;5.956;2022-07-29T10:22:06;22.50;61.20
39045;DHT22;52192;52.002;5.956;2022-07-29T10:24:32;22.80;60.90
39045;DHT22;52192;52.002;5.956;2022-07-29T10:26:59;23.20;60.40
39045;DHT22;52192;52.002;5.956;2022-07-29T10:29:26;23.30;59.90
39045;DHT22;52192;52.002;5.956;2022-07-29T10:34:29;23.80;59.30
39045;DHT22;52192;52.002;5.956;2022-07-29T10:36:59;24.00;58.70
39045;DHT22;52192;52.002;5.956;2022-07-29T10:44:44;24.80;57.40
39045;DHT22;52192;52.002;5.956;2022-07-29T10:47:20;25.10;57.50
39045;DHT22;52192;52.002;5.956;2022-07-29T10:49:58;25.30;56.70
39045;DHT22;52192;52.002;5.956;2022-07-29T10:52:25;25.50;55.70
39045;DHT22;52192;52.002;5.956;2022-07-29T10:55:25;25.70;55.40
39045;DHT22;52192;52.002;5.956;2022-07-29T10:58:11;25.90;54.70
39045;DHT22;52192;52.002;5.956;2022-07-29T11:00:37;26.10;53.90
39045;DHT22;52192;52.002;5.956;2022-07-29T11:03:03;26.20;53.50
39045;DHT22;52192;52.002;5.956;2022-07-29T11:05:29;26.40;53.40
39045;DHT22;52192;52.002;5.956;2022-07-29T11:10:37;26.80;52.30
39045;DHT22;52192;52.002;5.956;2022-07-29T11:13:03;26.90;52.20
39045;DHT22;52192;52.002;5.956;2022-07-29T11:15:28;27.00;51.60
39045;DHT22;52192;52.002;5.956;2022-07-29T11:20:41;27.40;51.40
39045;DHT22;52192;52.002;5.956;2022-07-29T11:23:29;27.50;49.90
39045;DHT22;52192;52.002;5.956;2022-07-29T11:31:39;27.40;51.00
39045;DHT22;52192;52.002;5.956;2022-07-29T11:34:16;27.40;50.60
39045;DHT22;52192;52.002;5.956;2022-07-29T11:39:27;27.40;50.10
39045;DHT22;52192;52.002;5.956;2022-07-29T11:41:57;27.20;49.10
39045;DHT22;52192;52.002;5.956;2022-07-29T11:47:24;27.40;49.50
39045;DHT22;52192;52.002;5.956;2022-07-29T11:49:50;27.70;48.90
39045;DHT22;52192;52.002;5.956;2022-07-29T11:52:17;27.70;48.90
39045;DHT22;52192;52.002;5.956;2022-07-29T11:54:43;27.80;48.50
39045;DHT22;52192;52.002;5.956;2022-07-29T11:57:08;27.90;48.80
39045;DHT22;52192;52.002;5.956;2022-07-29T11:59:41;27.90;48.80
39045;DHT22;52192;52.002;5.956;2022-07-29T12:02:07;28.00;48.60
39045;DHT22;52192;52.002;5.956;2022-07-29T12:04:33;28.00;48.60
39045;DHT22;52192;52.002;5.956;2022-07-29T12:06:59;28.20;48.20
39045;DHT22;52192;52.002;5.956;2022-07-29T12:09:24;28.30;48.30
39045;DHT22;52192;52.002;5.956;2022-07-29T12:11:56;28.40;48.30
39045;DHT22;52192;52.002;5.956;2022-07-29T12:14:28;28.50;47.90
39045;DHT22;52192;52.002;5.956;2022-07-29T12:16:54;28.60;47.80
39045;DHT22;52192;52.002;5.956;2022-07-29T12:19:20;28.70;47.50
39045;DHT22;52192;52.002;5.956;2022-07-29T12:21:46;28.90;46.90
39045;DHT22;52192;52.002;5.956;2022-07-29T12:24:12;29.10;46.50
39045;DHT22;52192;52.002;5.956;2022-07-29T12:26:48;29.20;45.40
39045;DHT22;52192;52.002;5.956;2022-07-29T12:29:17;29.20;45.30
39045;DHT22;52192;52.002;5.956;2022-07-29T12:31:43;29.30;44.90
39045;DHT22;52192;52.002;5.956;2022-07-29T12:34:13;29.30;44.90
39045;DHT22;52192;52.002;5.956;2022-07-29T12:36:40;29.40;45.80
39045;DHT22;52192;52.002;5.956;2022-07-29T12:39:05;29.60;45.30
39045;DHT22;52192;52.002;5.956;2022-07-29T12:41:31;29.90;44.80
39045;DHT22;52192;52.002;5.956;2022-07-29T12:43:57;30.10;43.70
39045;DHT22;52192;52.002;5.956;2022-07-29T12:46:23;30.20;43.50
39045;DHT22;52192;52.002;5.956;2022-07-29T12:48:51;30.20;43.20
39045;DHT22;52192;52.002;5.956;2022-07-29T12:51:31;30.30;43.60
39045;DHT22;52192;52.002;5.956;2022-07-29T12:54:04;30.50;43.00
39045;DHT22;52192;52.002;5.956;2022-07-29T12:56:30;30.50;41.50
39045;DHT22;52192;52.002;5.956;2022-07-29T12:58:55;30.60;41.90
39045;DHT22;52192;52.002;5.956;2022-07-29T13:01:21;30.80;42.20
39045;DHT22;52192;52.002;5.956;2022-07-29T13:03:48;30.90;41.70
39045;DHT22;52192;52.002;5.956;2022-07-29T13:09:19;31.00;41.60
39045;DHT22;52192;52.002;5.956;2022-07-29T13:11:46;31.30;41.40
39045;DHT22;52192;52.002;5.956;2022-07-29T13:14:12;31.40;41.00
39045;DHT22;52192;52.002;5.956;2022-07-29T13:19:31;31.90;40.30
39045;DHT22;52192;52.002;5.956;2022-07-29T13:21:57;32.00;39.90
39045;DHT22;52192;52.002;5.956;2022-07-29T13:24:22;32.10;40.20
39045;DHT22;52192;52.002;5.956;2022-07-29T13:27:09;32.20;39.10
39045;DHT22;52192;52.002;5.956;2022-07-29T13:29:34;32.40;39.30
39045;DHT22;52192;52.002;5.956;2022-07-29T13:32:00;32.50;38.80
39045;DHT22;52192;52.002;5.956;2022-07-29T13:34:25;32.50;38.10
39045;DHT22;52192;52.002;5.956;2022-07-29T13:36:51;32.40;38.60
39045;DHT22;52192;52.002;5.956;2022-07-29T13:39:16;32.50;38.80
39045;DHT22;52192;52.002;5.956;2022-07-29T13:41:42;32.60;38.90
39045;DHT22;52192;52.002;5.956;2022-07-29T13:44:08;32.70;38.30
39045;DHT22;52192;52.002;5.956;2022-07-29T13:46:33;32.80;37.30
39045;DHT22;52192;52.002;5.956;2022-07-29T13:48:59;32.60;37.40
39045;DHT22;52192;52.002;5.956;2022-07-29T13:51:24;32.50;37.70
39045;DHT22;52192;52.002;5.956;2022-07-29T13:53:50;32.40;37.80
39045;DHT22;52192;52.002;5.956;2022-07-29T13:56:15;32.60;38.00
39045;DHT22;52192;52.002;5.956;2022-07-29T13:58:41;32.70;38.00
39045;DHT22;52192;52.002;5.956;2022-07-29T14:01:06;32.90;37.90
39045;DHT22;52192;52.002;5.956;2022-07-29T14:03:32;33.00;38.00
39045;DHT22;52192;52.002;5.956;2022-07-29T14:05:58;33.10;36.80
39045;DHT22;52192;52.002;5.956;2022-07-29T14:08:25;32.90;36.90
39045;DHT22;52192;52.002;5.956;2022-07-29T14:10:50;32.80;36.70
39045;DHT22;52192;52.002;5.956;2022-07-29T14:13:17;32.80;36.20
39045;DHT22;52192;52.002;5.956;2022-07-29T14:15:43;32.90;37.00
39045;DHT22;52192;52.002;5.956;2022-07-29T14:18:08;33.00;36.60
39045;DHT22;52192;52.002;5.956;2022-07-29T14:20:34;32.90;36.50
39045;DHT22;52192;52.002;5.956;2022-07-29T14:22:59;32.80;36.90
39045;DHT22;52192;52.002;5.956;2022-07-29T14:25:25;32.40;36.90
39045;DHT22;52192;52.002;5.956;2022-07-29T14:27:50;32.00;36.50
39045;DHT22;52192;52.002;5.956;2022-07-29T14:30:18;31.60;37.30
39045;DHT22;52192;52.002;5.956;2022-07-29T14:32:43;31.20;37.80
39045;DHT22;52192;52.002;5.956;2022-07-29T14:35:09;30.80;38.30
39045;DHT22;52192;52.002;5.956;2022-07-29T14:37:35;30.70;38.30
39045;DHT22;52192;52.002;5.956;2022-07-29T14:40:01;30.90;37.90
39045;DHT22;52192;52.002;5.956;2022-07-29T14:42:28;31.00;37.10
39045;DHT22;52192;52.002;5.956;2022-07-29T14:44:54;31.30;37.30
39045;DHT22;52192;52.002;5.956;2022-07-29T14:47:19;31.50;37.60
39045;DHT22;52192;52.002;5.956;2022-07-29T14:49:47;31.50;37.80
39045;DHT22;52192;52.002;5.956;2022-07-29T14:52:12;31.70;38.10
39045;DHT22;52192;52.002;5.956;2022-07-29T14:54:38;32.00;38.10
39045;DHT22;52192;52.002;5.956;2022-07-29T14:57:03;32.30;38.00
39045;DHT22;52192;52.002;5.956;2022-07-29T14:59:29;32.70;37.80
39045;DHT22;52192;52.002;5.956;2022-07-29T15:01:54;32.70;37.20
39045;DHT22;52192;52.002;5.956;2022-07-29T15:04:20;32.70;37.20
39045;DHT22;52192;52.002;5.956;2022-07-29T15:06:45;32.70;37.00
39045;DHT22;52192;52.002;5.956;2022-07-29T15:09:11;32.60;36.30
39045;DHT22;52192;52.002;5.956;2022-07-29T15:11:37;32.30;36.50
39045;DHT22;52192;52.002;5.956;2022-07-29T15:14:02;31.80;36.90
39045;DHT22;52192;52.002;5.956;2022-07-29T15:16:28;31.50;37.60
39045;DHT22;52192;52.002;5.956;2022-07-29T15:18:53;31.20;38.10
39045;DHT22;52192;52.002;5.956;2022-07-29T15:21:19;31.00;38.50
39045;DHT22;52192;52.002;5.956;2022-07-29T15:23:44;30.80;39.00
39045;DHT22;52192;52.002;5.956;2022-07-29T15:26:10;30.70;39.30
39045;DHT22;52192;52.002;5.956;2022-07-29T15:28:35;30.60;39.40
39045;DHT22;52192;52.002;5.956;2022-07-29T15:31:01;30.50;39.50
39045;DHT22;52192;52.002;5.956;2022-07-29T15:33:26;30.20;39.60
39045;DHT22;52192;52.002;5.956;2022-07-29T15:35:52;30.10;39.80
39045;DHT22;52192;52.002;5.956;2022-07-29T15:38:18;29.90;40.00
39045;DHT22;52192;52.002;5.956;2022-07-29T15:40:43;29.70;40.30
39045;DHT22;52192;52.002;5.956;2022-07-29T15:43:10;29.50;40.40
39045;DHT22;52192;52.002;5.956;2022-07-29T15:45:40;29.40;40.70
39045;DHT22;52192;52.002;5.956;2022-07-29T15:48:06;29.30;40.90
39045;DHT22;52192;52.002;5.956;2022-07-29T15:50:32;29.20;41.20
39045;DHT22;52192;52.002;5.956;2022-07-29T15:52:58;29.10;41.30
39045;DHT22;52192;52.002;5.956;2022-07-29T15:55:24;29.00;41.50
39045;DHT22;52192;52.002;5.956;2022-07-29T15:57:50;28.90;41.70
39045;DHT22;52192;52.002;5.956;2022-07-29T16:00:15;28.80;41.90
39045;DHT22;52192;52.002;5.956;2022-07-29T16:02:42;28.70;41.90
39045;DHT22;52192;52.002;5.956;2022-07-29T16:05:08;28.60;42.10
39045;DHT22;52192;52.002;5.956;2022-07-29T16:07:33;28.60;42.30
39045;DHT22;52192;52.002;5.956;2022-07-29T16:10:00;28.60;42.40
39045;DHT22;52192;52.002;5.956;2022-07-29T16:12:26;28.50;42.70